TAF PAEN
PAEN 270520Z 2706/2806 02005KT P6SM OVC045=
METAR PAEN
WC PAEN
WS PAEN
WV PAEN